createdAt,value
2019-04-04T00:01:20.827Z,95809.02
2019-04-04T00:03:47.380Z,95822.42
2019-04-04T00:06:14.024Z,95822.42
2019-04-04T00:08:40.569Z,95810.25
2019-04-04T00:11:07.113Z,95809.02
2019-04-04T00:13:33.750Z,95804.31
2019-04-04T00:16:00.619Z,95811.92
2019-04-04T00:18:27.401Z,95809.02
2019-04-04T00:20:54.706Z,95801.52
2019-04-04T00:23:21.345Z,95814.20
2019-04-04T00:25:47.885Z,95807.55
2019-04-04T00:28:15.065Z,95804.95
2019-04-04T00:30:42.185Z,95806.11
2019-04-04T00:33:08.844Z,95793.81
2019-04-04T00:35:35.477Z,95801.23
2019-04-04T00:38:02.212Z,95799.69
2019-04-04T00:40:28.883Z,95807.84
2019-04-04T00:42:55.528Z,95803.80
2019-04-04T00:45:22.496Z,95796.98
2019-04-04T00:47:49.065Z,95788.19
2019-04-04T00:50:15.822Z,95795.59
2019-04-04T00:52:42.480Z,95794.60
2019-04-04T00:55:09.228Z,95792.45
2019-04-04T00:57:35.881Z,95784.43
2019-04-04T01:00:02.641Z,95789.14
2019-04-04T01:02:29.313Z,95792.45
2019-04-04T01:04:55.843Z,95800.99
2019-04-04T01:07:22.755Z,95801.84
2019-04-04T01:09:49.321Z,95796.14
2019-04-04T01:12:15.933Z,95785.28
2019-04-04T01:14:42.556Z,95777.68
2019-04-04T01:17:09.285Z,95775.78
2019-04-04T01:19:36.065Z,95779.25
2019-04-04T01:22:02.759Z,95782.63
2019-04-04T01:24:29.958Z,95779.44
2019-04-04T01:26:56.815Z,95784.44
2019-04-04T01:29:23.589Z,95782.59
2019-04-04T01:31:50.153Z,95775.64
2019-04-04T01:34:16.713Z,95784.59
2019-04-04T01:36:43.382Z,95773.24
2019-04-04T01:39:11.960Z,95763.05
2019-04-04T01:41:38.763Z,95769.17
2019-04-04T01:44:05.677Z,95766.73
2019-04-04T01:46:32.441Z,95766.88
2019-04-04T01:48:59.108Z,95768.33
2019-04-04T01:51:26.115Z,95752.78
2019-04-04T01:53:52.883Z,95757.67
2019-04-04T01:56:19.650Z,95750.25
2019-04-04T01:58:46.464Z,95743.91
2019-04-04T02:01:16.240Z,95736.41
2019-04-04T02:03:41.765Z,95731.06
2019-04-04T02:06:08.519Z,95735.66
2019-04-04T02:08:35.289Z,95727.91
2019-04-04T02:11:02.035Z,95727.31
2019-04-04T02:13:28.816Z,95730.11
2019-04-04T02:15:55.536Z,95721.55
2019-04-04T02:18:23.602Z,95719.98
2019-04-04T02:20:50.852Z,95708.40
2019-04-04T02:23:17.560Z,95711.09
2019-04-04T02:25:44.463Z,95712.74
2019-04-04T02:28:11.124Z,95709.05
2019-04-04T02:30:37.811Z,95703.95
2019-04-04T02:33:04.603Z,95692.31
2019-04-04T02:35:31.381Z,95690.76
2019-04-04T02:37:58.195Z,95691.31
2019-04-04T02:40:24.877Z,95695.35
2019-04-04T02:42:55.261Z,95694.80
2019-04-04T02:45:20.339Z,95686.62
2019-04-04T02:47:50.308Z,95688.97
2019-04-04T02:50:15.806Z,95688.97
2019-04-04T02:52:45.720Z,95683.27
2019-04-04T02:55:11.404Z,95684.49
2019-04-04T02:57:41.173Z,95684.54
2019-04-04T03:00:06.881Z,95673.34
2019-04-04T03:02:36.185Z,95663.11
2019-04-04T03:05:02.740Z,95665.55
2019-04-04T03:07:30.989Z,95675.70
2019-04-04T03:09:58.130Z,95681.09
2019-04-04T03:12:26.342Z,95667.41
2019-04-04T03:14:53.788Z,95664.70
2019-04-04T03:17:20.559Z,95669.16
2019-04-04T03:19:47.426Z,95668.60
2019-04-04T03:22:15.335Z,95661.14
2019-04-04T03:24:44.720Z,95656.89
2019-04-04T03:27:10.867Z,95645.86
2019-04-04T03:29:38.441Z,95642.70
2019-04-04T03:32:05.207Z,95645.20
2019-04-04T03:34:31.949Z,95645.80
2019-04-04T03:36:58.732Z,95647.25
2019-04-04T03:39:25.499Z,95635.24
2019-04-04T03:41:52.283Z,95635.55
2019-04-04T03:44:19.896Z,95636.44
2019-04-04T03:46:47.631Z,95638.59
2019-04-04T03:49:16.461Z,95631.14
2019-04-04T03:51:44.424Z,95618.30
2019-04-04T03:54:14.394Z,95614.86
2019-04-04T03:56:41.078Z,95620.59
2019-04-04T03:59:07.757Z,95615.83
2019-04-04T04:01:34.618Z,95606.94
2019-04-04T04:04:01.308Z,95602.95
2019-04-04T04:06:28.169Z,95602.23
2019-04-04T04:08:55.442Z,95596.30
2019-04-04T04:11:22.218Z,95591.72
2019-04-04T04:13:50.054Z,95587.92
2019-04-04T04:16:16.906Z,95580.44
2019-04-04T04:18:43.711Z,95584.47
2019-04-04T04:21:11.330Z,95576.39
2019-04-04T04:23:38.239Z,95573.70
2019-04-04T04:26:08.035Z,95573.44
2019-04-04T04:28:34.031Z,95572.69
2019-04-04T04:31:00.876Z,95578.88
2019-04-04T04:33:29.371Z,95570.30
2019-04-04T04:35:56.297Z,95575.98
2019-04-04T04:38:25.187Z,95571.44
2019-04-04T04:40:51.580Z,95577.38
2019-04-04T04:43:18.343Z,95570.44
2019-04-04T04:45:45.558Z,95568.32
2019-04-04T04:48:12.412Z,95566.97
2019-04-04T04:50:40.484Z,95565.63
2019-04-04T04:53:08.938Z,95558.64
2019-04-04T04:55:36.010Z,95559.53
2019-04-04T04:58:03.025Z,95543.91
2019-04-04T05:00:30.101Z,95546.06
2019-04-04T05:02:56.847Z,95538.23
2019-04-04T05:05:24.746Z,95536.33
2019-04-04T05:07:54.666Z,95528.05
2019-04-04T05:10:21.634Z,95531.24
2019-04-04T05:12:48.466Z,95528.84
2019-04-04T05:15:15.194Z,95536.68
2019-04-04T05:17:42.597Z,95547.41
2019-04-04T05:20:09.710Z,95539.58
2019-04-04T05:22:39.672Z,95529.30
2019-04-04T05:25:08.359Z,95534.94
2019-04-04T05:27:35.109Z,95537.55
2019-04-04T05:30:04.307Z,95522.09
2019-04-04T05:32:31.360Z,95518.80
2019-04-04T05:35:01.247Z,95514.45
2019-04-04T05:37:28.718Z,95508.72
2019-04-04T05:39:55.539Z,95505.92
2019-04-04T05:42:22.315Z,95497.23
2019-04-04T05:44:48.960Z,95493.06
2019-04-04T05:47:15.896Z,95500.23
2019-04-04T05:49:42.719Z,95506.63
2019-04-04T05:52:09.511Z,95507.62
2019-04-04T05:54:38.760Z,95486.35
2019-04-04T05:57:04.914Z,95481.90
2019-04-04T05:59:31.720Z,95479.64
2019-04-04T06:01:58.594Z,95479.31
2019-04-04T06:04:25.493Z,95488.39
2019-04-04T06:06:55.335Z,95476.75
2019-04-04T06:09:21.105Z,95472.59
2019-04-04T06:11:48.728Z,95461.75
2019-04-04T06:14:15.586Z,95450.35
2019-04-04T06:16:42.312Z,95447.78
2019-04-04T06:19:09.117Z,95448.43
2019-04-04T06:21:35.992Z,95448.50
2019-04-04T06:24:02.780Z,95441.02
2019-04-04T06:26:29.559Z,95426.36
2019-04-04T06:28:56.244Z,95433.25
2019-04-04T06:31:26.259Z,95428.59
2019-04-04T06:33:51.506Z,95419.39
2019-04-04T06:36:18.363Z,95416.45
2019-04-04T06:38:45.149Z,95418.59
2019-04-04T06:41:11.926Z,95417.73
2019-04-04T06:43:41.395Z,95406.88
2019-04-04T06:46:07.059Z,95399.58
2019-04-04T06:48:33.987Z,95398.95
2019-04-04T06:51:00.684Z,95391.22
2019-04-04T06:53:27.509Z,95386.62
2019-04-04T06:55:54.176Z,95390.03
2019-04-04T06:58:20.984Z,95389.59
2019-04-04T07:00:50.019Z,95382.48
2019-04-04T07:03:16.120Z,95371.94
2019-04-04T07:05:42.968Z,95372.69
2019-04-04T07:08:09.701Z,95368.22
2019-04-04T07:10:36.499Z,95358.63
2019-04-04T07:13:20.183Z,95363.53
2019-04-04T07:15:32.222Z,95350.48
2019-04-04T07:17:58.943Z,95349.34
2019-04-04T07:20:28.206Z,95336.66
2019-04-04T07:22:56.294Z,95339.39
2019-04-04T07:25:23.203Z,95340.80
2019-04-04T07:27:50.002Z,95336.12
2019-04-04T07:30:16.801Z,95336.73
2019-04-04T07:32:43.397Z,95333.20
2019-04-04T07:35:10.180Z,95338.70
2019-04-04T07:37:36.763Z,95329.96
2019-04-04T07:40:04.653Z,95328.61
2019-04-04T07:42:31.367Z,95329.08
2019-04-04T07:44:58.054Z,95330.06
2019-04-04T07:47:24.740Z,95320.23
2019-04-04T07:49:53.221Z,95318.16
2019-04-04T07:52:20.111Z,95309.36
2019-04-04T07:54:46.894Z,95305.83
2019-04-04T07:57:13.559Z,95295.74
2019-04-04T07:59:40.251Z,95291.61
2019-04-04T08:02:07.127Z,95286.72
2019-04-04T08:04:33.901Z,95291.63
2019-04-04T08:07:00.621Z,95285.75
2019-04-04T08:09:27.293Z,95286.66
2019-04-04T08:11:53.935Z,95287.66
2019-04-04T08:14:21.859Z,95281.52
2019-04-04T08:16:48.518Z,95290.09
2019-04-04T08:19:15.291Z,95291.19
2019-04-04T08:21:42.116Z,95279.52
2019-04-04T08:24:08.772Z,95262.17
2019-04-04T08:26:35.429Z,95266.22
2019-04-04T08:29:02.202Z,95260.03
2019-04-04T08:31:29.077Z,95270.33
2019-04-04T08:33:55.724Z,95277.57
2019-04-04T08:36:22.527Z,95273.86
2019-04-04T08:38:49.104Z,95270.70
2019-04-04T08:41:15.858Z,95274.41
2019-04-04T08:43:42.667Z,95276.98
2019-04-04T08:46:09.360Z,95274.94
2019-04-04T08:48:36.123Z,95273.25
2019-04-04T08:51:05.096Z,95269.92
2019-04-04T08:53:39.950Z,95265.42
2019-04-04T08:56:00.495Z,95259.94
2019-04-04T08:58:27.183Z,95257.75
2019-04-04T09:00:53.983Z,95261.30
2019-04-04T09:03:20.834Z,95258.41
2019-04-04T09:05:47.590Z,95266.90
2019-04-04T09:08:14.473Z,95247.41
2019-04-04T09:10:41.140Z,95244.97
2019-04-04T09:13:07.800Z,95236.33
2019-04-04T09:15:34.536Z,95255.35
2019-04-04T09:18:01.329Z,95240.91
2019-04-04T09:20:28.236Z,95248.77
2019-04-04T09:22:55.287Z,95239.93
2019-04-04T09:25:21.950Z,95237.17
2019-04-04T09:27:48.606Z,95234.50
2019-04-04T09:30:15.714Z,95230.80
2019-04-04T09:32:42.648Z,95231.16
2019-04-04T09:35:09.437Z,95227.22
2019-04-04T09:37:36.343Z,95223.87
2019-04-04T09:40:03.735Z,95221.89
2019-04-04T09:42:30.396Z,95224.06
2019-04-04T09:44:57.201Z,95214.03
2019-04-04T09:47:23.852Z,95222.06
2019-04-04T09:49:50.721Z,95207.28
2019-04-04T09:52:17.416Z,95220.09
2019-04-04T09:54:44.189Z,95221.87
2019-04-04T09:57:10.878Z,95216.95
2019-04-04T09:59:37.443Z,95216.14
2019-04-04T10:02:04.360Z,95219.89
2019-04-04T10:04:31.207Z,95224.25
2019-04-04T10:06:58.163Z,95215.20
2019-04-04T10:09:24.738Z,95210.88
2019-04-04T10:11:51.453Z,95220.31
2019-04-04T10:14:18.121Z,95215.97
2019-04-04T10:16:44.952Z,95220.83
2019-04-04T10:19:11.640Z,95221.48
2019-04-04T10:21:38.477Z,95235.35
2019-04-04T10:24:05.159Z,95229.27
2019-04-04T10:26:31.839Z,95233.75
2019-04-04T10:28:58.639Z,95239.55
2019-04-04T10:31:25.483Z,95253.97
2019-04-04T10:33:52.249Z,95256.09
2019-04-04T10:36:18.927Z,95245.61
2019-04-04T10:38:45.674Z,95252.33
2019-04-04T10:41:12.393Z,95245.85
2019-04-04T10:43:38.972Z,95235.88
2019-04-04T10:46:05.748Z,95243.33
2019-04-04T10:48:32.410Z,95240.54
2019-04-04T10:50:59.384Z,95246.53
2019-04-04T10:53:26.152Z,95238.44
2019-04-04T10:55:52.959Z,95246.48
2019-04-04T10:58:19.633Z,95243.09
2019-04-04T11:00:46.500Z,95239.13
2019-04-04T11:03:13.234Z,95235.88
2019-04-04T11:05:40.021Z,95236.17
2019-04-04T11:08:06.792Z,95232.66
2019-04-04T11:10:33.467Z,95233.40
2019-04-04T11:13:02.761Z,95228.95
2019-04-04T11:15:28.961Z,95224.66
2019-04-04T11:17:55.801Z,95221.69
2019-04-04T11:20:22.606Z,95230.45
2019-04-04T11:22:49.354Z,95226.69
2019-04-04T11:25:16.132Z,95231.20
2019-04-04T11:27:42.760Z,95227.35
2019-04-04T11:30:09.864Z,95213.87
2019-04-04T11:32:36.598Z,95216.13
2019-04-04T11:35:04.019Z,95217.24
2019-04-04T11:37:30.790Z,95210.53
2019-04-04T11:39:57.460Z,95214.86
2019-04-04T11:42:24.136Z,95210.84
2019-04-04T11:44:51.007Z,95214.06
2019-04-04T11:47:17.803Z,95207.80
2019-04-04T11:49:44.757Z,95206.82
2019-04-04T11:52:11.620Z,95208.43
2019-04-04T11:54:57.832Z,95208.10
2019-04-04T11:57:24.700Z,95211.14
2019-04-04T11:59:52.042Z,95202.75
2019-04-04T12:02:20.155Z,95203.36
2019-04-04T12:04:46.828Z,95201.85
2019-04-04T12:07:13.649Z,95188.06
2019-04-04T12:09:40.559Z,95195.10
2019-04-04T12:12:07.466Z,95184.47
2019-04-04T12:14:34.143Z,95192.89
2019-04-04T12:17:01.008Z,95194.49
2019-04-04T12:19:27.907Z,95191.37
2019-04-04T12:21:54.705Z,95196.55
2019-04-04T12:24:21.472Z,95203.86
2019-04-04T12:26:48.149Z,95193.02
2019-04-04T12:29:14.911Z,95195.67
2019-04-04T12:31:41.604Z,95195.52
2019-04-04T12:34:08.314Z,95195.96
2019-04-04T12:36:37.123Z,95196.95
2019-04-04T12:39:05.982Z,95195.77
2019-04-04T12:41:32.893Z,95189.70
2019-04-04T12:43:59.590Z,95194.27
2019-04-04T12:46:27.380Z,95189.93
2019-04-04T12:48:54.042Z,95192.88
2019-04-04T12:51:20.612Z,95195.64
2019-04-04T12:53:47.641Z,95195.83
2019-04-04T12:56:14.345Z,95195.64
2019-04-04T12:58:41.152Z,95189.54
2019-04-04T13:01:07.875Z,95186.59
2019-04-04T13:03:34.421Z,95184.81
2019-04-04T13:06:01.287Z,95189.12
2019-04-04T13:08:30.470Z,95190.09
2019-04-04T13:10:58.808Z,95199.94
2019-04-04T13:13:25.478Z,95200.33
2019-04-04T13:15:52.160Z,95200.13
2019-04-04T13:18:18.835Z,95191.87
2019-04-04T13:20:45.502Z,95194.62
2019-04-04T13:23:12.310Z,95192.84
2019-04-04T13:25:41.977Z,95196.19
2019-04-04T13:28:11.118Z,95197.57
2019-04-04T13:30:37.926Z,95186.55
2019-04-04T13:33:04.691Z,95194.23
2019-04-04T13:35:31.392Z,95189.50
2019-04-04T13:37:58.044Z,95180.25
2019-04-04T13:40:24.821Z,95186.70
2019-04-04T13:42:52.956Z,95187.09
2019-04-04T13:45:20.224Z,95182.56
2019-04-04T13:47:46.977Z,95182.40
2019-04-04T13:50:14.042Z,95190.45
2019-04-04T13:52:40.879Z,95187.50
2019-04-04T13:55:07.754Z,95190.20
2019-04-04T13:57:35.968Z,95195.30
2019-04-04T14:00:09.117Z,95196.41
2019-04-04T14:02:42.200Z,95199.13
2019-04-04T14:05:11.491Z,95198.52
2019-04-04T14:07:39.594Z,95201.66
2019-04-04T14:10:08.710Z,95202.20
2019-04-04T14:12:35.705Z,95202.19
2019-04-04T14:15:05.823Z,95200.20
2019-04-04T14:17:32.743Z,95203.33
2019-04-04T14:20:00.600Z,95207.66
2019-04-04T14:22:29.348Z,95208.56
2019-04-04T14:25:05.642Z,95215.13
2019-04-04T14:27:32.737Z,95216.39
2019-04-04T14:29:59.743Z,95218.80
2019-04-04T14:32:26.658Z,95221.95
2019-04-04T14:34:53.531Z,95229.84
2019-04-04T14:37:20.337Z,95242.45
2019-04-04T14:39:52.636Z,95246.56
2019-04-04T14:42:19.535Z,95244.44
2019-04-04T14:44:46.585Z,95246.89
2019-04-04T14:47:17.088Z,95252.59
2019-04-04T14:49:45.804Z,95254.43
2019-04-04T14:52:19.530Z,95255.84
2019-04-04T14:54:44.944Z,95266.50
2019-04-04T14:57:11.716Z,95271.04
2019-04-04T14:59:38.596Z,95278.42
2019-04-04T15:02:05.444Z,95284.34
2019-04-04T15:04:35.215Z,95286.33
2019-04-04T15:07:05.335Z,95295.25
2019-04-04T15:09:32.079Z,95291.13
2019-04-04T15:11:58.885Z,95291.34
2019-04-04T15:14:25.737Z,95289.21
2019-04-04T15:16:52.485Z,95290.60
2019-04-04T15:19:19.236Z,95296.73
2019-04-04T15:21:46.031Z,95294.97
2019-04-04T15:24:13.800Z,95310.11
2019-04-04T15:26:40.502Z,95323.46
2019-04-04T15:29:07.402Z,95320.91
2019-04-04T15:31:34.093Z,95330.91
2019-04-04T15:34:01.604Z,95339.73
2019-04-04T15:36:28.407Z,95331.09
2019-04-04T15:38:55.192Z,95340.91
2019-04-04T15:41:22.080Z,95349.11
2019-04-04T15:43:48.859Z,95362.45
2019-04-04T15:46:15.636Z,95376.42
2019-04-04T15:48:42.380Z,95385.96
2019-04-04T15:51:09.099Z,95388.48
2019-04-04T15:53:35.939Z,95404.20
2019-04-04T15:56:02.645Z,95410.88
2019-04-04T15:58:29.639Z,95427.97
2019-04-04T16:00:56.486Z,95436.89
2019-04-04T16:03:23.647Z,95432.41
2019-04-04T16:05:50.643Z,95438.64
2019-04-04T16:08:17.498Z,95449.09
2019-04-04T16:10:44.403Z,95451.33
2019-04-04T16:13:11.125Z,95463.81
2019-04-04T16:15:37.847Z,95475.67
2019-04-04T16:18:04.642Z,95473.34
2019-04-04T16:20:31.465Z,95483.94
2019-04-04T16:22:58.332Z,95489.36
2019-04-04T16:25:25.186Z,95494.06
2019-04-04T16:27:51.900Z,95507.80
2019-04-04T16:30:18.681Z,95504.95
2019-04-04T16:32:45.539Z,95510.16
2019-04-04T16:35:12.373Z,95521.13
2019-04-04T16:37:39.216Z,95529.39
2019-04-04T16:40:09.216Z,95533.34
2019-04-04T16:42:35.620Z,95529.25
2019-04-04T16:45:02.801Z,95528.02
2019-04-04T16:47:29.469Z,95535.34
2019-04-04T16:49:56.173Z,95548.65
2019-04-04T16:52:22.904Z,95551.98
2019-04-04T16:54:53.588Z,95568.34
2019-04-04T16:57:20.088Z,95565.17
2019-04-04T16:59:46.757Z,95572.13
2019-04-04T17:02:15.498Z,95574.50
2019-04-04T17:04:42.132Z,95580.25
2019-04-04T17:07:08.826Z,95581.61
2019-04-04T17:09:35.516Z,95587.73
2019-04-04T17:12:14.173Z,95592.17
2019-04-04T17:14:33.117Z,95608.73
2019-04-04T17:16:59.270Z,95608.66
2019-04-04T17:19:26.086Z,95622.72
2019-04-04T17:21:52.733Z,95628.96
2019-04-04T17:24:19.451Z,95639.29
2019-04-04T17:26:46.313Z,95644.70
2019-04-04T17:29:13.166Z,95656.29
2019-04-04T17:31:39.988Z,95660.60
2019-04-04T17:34:06.888Z,95658.54
2019-04-04T17:36:33.895Z,95663.66
2019-04-04T17:39:00.646Z,95675.46
2019-04-04T17:41:27.607Z,95681.29
2019-04-04T17:43:54.382Z,95683.95
2019-04-04T17:46:21.039Z,95689.39
2019-04-04T17:48:48.372Z,95708.09
2019-04-04T17:51:16.755Z,95718.65
2019-04-04T17:53:43.592Z,95734.16
2019-04-04T17:56:10.280Z,95735.49
2019-04-04T17:58:37.076Z,95740.73
2019-04-04T18:01:05.102Z,95757.36
2019-04-04T18:03:31.862Z,95760.05
2019-04-04T18:05:58.717Z,95755.47
2019-04-04T18:08:25.400Z,95764.28
2019-04-04T18:10:52.241Z,95763.59
2019-04-04T18:13:19.119Z,95787.84
2019-04-04T18:15:46.096Z,95787.66
2019-04-04T18:18:12.764Z,95792.58
2019-04-04T18:20:39.615Z,95798.25
2019-04-04T18:23:06.491Z,95799.00
2019-04-04T18:25:33.684Z,95801.81
2019-04-04T18:28:01.611Z,95800.36
2019-04-04T18:30:28.434Z,95804.20
2019-04-04T18:32:55.610Z,95806.97
2019-04-04T18:35:22.492Z,95829.36
2019-04-04T18:37:49.583Z,95827.06
2019-04-04T18:40:16.549Z,95821.80
2019-04-04T18:42:53.065Z,95814.69
2019-04-04T18:45:12.856Z,95810.70
2019-04-04T18:47:39.662Z,95811.59
2019-04-04T18:50:06.492Z,95814.03
2019-04-04T18:52:33.310Z,95820.27
2019-04-04T18:55:00.151Z,95816.77
2019-04-04T18:57:26.834Z,95830.80
2019-04-04T18:59:54.545Z,95843.91
2019-04-04T19:02:21.404Z,95843.63
2019-04-04T19:04:48.085Z,95839.32
2019-04-04T19:07:14.880Z,95839.25
2019-04-04T19:09:41.731Z,95847.71
2019-04-04T19:12:08.472Z,95852.50
2019-04-04T19:14:35.349Z,95861.94
2019-04-04T19:17:02.244Z,95876.72
2019-04-04T19:19:29.162Z,95890.54
2019-04-04T19:21:55.960Z,95901.77
2019-04-04T19:24:22.749Z,95904.04
2019-04-04T19:26:49.521Z,95906.97
2019-04-04T19:29:17.549Z,95918.79
2019-04-04T19:31:44.483Z,95924.07
2019-04-04T19:34:11.282Z,95935.73
2019-04-04T19:36:44.026Z,95957.80
2019-04-04T19:39:16.111Z,95960.63
2019-04-04T19:41:42.897Z,95949.47
2019-04-04T19:44:09.896Z,95946.75
2019-04-04T19:46:37.469Z,95941.88
2019-04-04T19:49:04.374Z,95936.93
2019-04-04T19:51:31.210Z,95938.45
2019-04-04T19:53:59.067Z,95941.48
2019-04-04T19:56:26.009Z,95930.38
2019-04-04T19:58:52.927Z,95926.39
2019-04-04T20:01:19.693Z,95927.08
2019-04-04T20:03:46.518Z,95931.02
2019-04-04T20:06:13.397Z,95936.53
2019-04-04T20:08:42.092Z,95948.12
2019-04-04T20:11:09.865Z,95945.00
2019-04-04T20:13:36.712Z,95951.95
2019-04-04T20:16:03.579Z,95955.38
2019-04-04T20:18:30.400Z,95971.42
2019-04-04T20:20:57.236Z,95978.31
2019-04-04T20:23:24.027Z,95984.13
2019-04-04T20:25:51.008Z,95976.84
2019-04-04T20:28:17.859Z,95985.45
2019-04-04T20:30:44.638Z,95996.87
2019-04-04T20:33:13.398Z,95992.31
2019-04-04T20:35:40.225Z,95992.97
2019-04-04T20:38:07.024Z,96002.05
2019-04-04T20:40:35.906Z,96003.41
2019-04-04T20:43:02.791Z,96011.62
2019-04-04T20:45:29.629Z,96012.66
2019-04-04T20:47:56.406Z,96010.75
2019-04-04T20:50:23.165Z,96012.59
2019-04-04T20:52:50.067Z,96013.81
2019-04-04T20:55:16.835Z,96016.56
2019-04-04T20:57:43.661Z,96020.49
2019-04-04T21:00:10.718Z,96024.88
2019-04-04T21:02:37.485Z,96017.36
2019-04-04T21:05:04.544Z,96019.00
2019-04-04T21:07:34.495Z,96012.22
2019-04-04T21:10:01.289Z,96022.02
2019-04-04T21:12:28.048Z,96024.50
2019-04-04T21:14:54.848Z,96028.01
2019-04-04T21:17:21.626Z,96036.08
2019-04-04T21:19:48.392Z,96028.56
2019-04-04T21:22:27.021Z,96038.61
2019-04-04T21:24:44.200Z,96040.09
2019-04-04T21:27:11.074Z,96042.80
2019-04-04T21:29:37.927Z,96055.26
2019-04-04T21:32:04.691Z,96069.13
2019-04-04T21:34:31.639Z,96082.94
2019-04-04T21:36:58.387Z,96090.28
2019-04-04T21:39:26.132Z,96099.89
2019-04-04T21:41:53.094Z,96092.50
2019-04-04T21:44:19.836Z,96089.11
2019-04-04T21:46:46.755Z,96082.89
2019-04-04T21:49:13.512Z,96080.11
2019-04-04T21:51:40.285Z,96078.38
2019-04-04T21:54:06.974Z,96078.56
2019-04-04T21:56:33.643Z,96084.23
2019-04-04T21:59:00.363Z,96090.64
2019-04-04T22:01:27.058Z,96103.53
2019-04-04T22:03:55.668Z,96114.59
2019-04-04T22:06:22.551Z,96108.80
2019-04-04T22:08:49.241Z,96110.84
2019-04-04T22:11:16.040Z,96113.43
2019-04-04T22:13:42.717Z,96110.91
2019-04-04T22:16:09.523Z,96103.97
2019-04-04T22:18:36.450Z,96094.73
2019-04-04T22:21:03.250Z,96102.55
2019-04-04T22:23:29.892Z,96107.14
2019-04-04T22:25:56.554Z,96103.02
2019-04-04T22:28:23.389Z,96101.29
2019-04-04T22:30:50.100Z,96095.62
2019-04-04T22:33:16.798Z,96098.17
2019-04-04T22:35:43.656Z,96101.41
2019-04-04T22:38:10.391Z,96096.23
2019-04-04T22:40:37.302Z,96093.52
2019-04-04T22:43:04.118Z,96086.19
2019-04-04T22:45:30.848Z,96087.64
2019-04-04T22:47:57.641Z,96096.95
2019-04-04T22:50:24.473Z,96090.31
2019-04-04T22:52:52.347Z,96094.88
2019-04-04T22:55:19.120Z,96096.23
2019-04-04T22:57:45.839Z,96093.27
2019-04-04T23:00:13.084Z,96094.88
2019-04-04T23:02:39.895Z,96092.41
2019-04-04T23:05:06.985Z,96095.84
2019-04-04T23:07:33.777Z,96101.01
2019-04-04T23:10:00.562Z,96108.67
2019-04-04T23:12:27.338Z,96105.34
2019-04-04T23:14:54.035Z,96102.20
2019-04-04T23:17:21.732Z,96101.77
2019-04-04T23:19:48.443Z,96109.09
2019-04-04T23:22:15.116Z,96110.14
2019-04-04T23:24:41.816Z,96111.45
2019-04-04T23:27:08.504Z,96112.00
2019-04-04T23:29:35.429Z,96105.69
2019-04-04T23:32:02.010Z,96115.92
2019-04-04T23:34:28.786Z,96113.91
2019-04-04T23:36:55.478Z,96106.39
2019-04-04T23:39:23.213Z,96107.50
2019-04-04T23:41:50.130Z,96115.63
2019-04-04T23:44:16.796Z,96112.92
2019-04-04T23:46:43.360Z,96122.76
2019-04-04T23:49:10.271Z,96121.21
2019-04-04T23:51:36.958Z,96118.61
2019-04-04T23:54:03.950Z,96127.29
2019-04-04T23:56:30.655Z,96117.67
2019-04-04T23:58:57.335Z,96112.45
